sensor_id;sensor_type;location;lat;lon;timestamp;temperature;humidity
4739;DHT22;2383;48.632;10.156;2023-02-28T00:03:16;-2.70;82.80
4739;DHT22;2383;48.632;10.156;2023-02-28T00:07:19;-4.50;85.40
4739;DHT22;2383;48.632;10.156;2023-02-28T00:11:21;-3.40;84.90
4739;DHT22;2383;48.632;10.156;2023-02-28T00:15:23;-4.30;85.60
4739;DHT22;2383;48.632;10.156;2023-02-28T00:19:25;-4.40;85.50
4739;DHT22;2383;48.632;10.156;2023-02-28T00:23:27;-3.90;86.40
4739;DHT22;2383;48.632;10.156;2023-02-28T00:27:30;-4.10;86.10
4739;DHT22;2383;48.632;10.156;2023-02-28T00:31:32;-4.30;85.60
4739;DHT22;2383;48.632;10.156;2023-02-28T00:35:35;-4.20;86.40
4739;DHT22;2383;48.632;10.156;2023-02-28T00:39:39;-4.10;85.90
4739;DHT22;2383;48.632;10.156;2023-02-28T00:43:41;-4.40;85.00
4739;DHT22;2383;48.632;10.156;2023-02-28T00:47:45;-4.80;86.00
4739;DHT22;2383;48.632;10.156;2023-02-28T00:51:48;-4.70;87.60
4739;DHT22;2383;48.632;10.156;2023-02-28T00:55:50;-3.90;85.90
4739;DHT22;2383;48.632;10.156;2023-02-28T00:59:52;-4.00;85.70
4739;DHT22;2383;48.632;10.156;2023-02-28T01:03:55;-4.60;86.80
4739;DHT22;2383;48.632;10.156;2023-02-28T01:07:57;-4.00;87.00
4739;DHT22;2383;48.632;10.156;2023-02-28T01:11:59;-4.70;87.60
4739;DHT22;2383;48.632;10.156;2023-02-28T01:16:01;-4.70;86.60
4739;DHT22;2383;48.632;10.156;2023-02-28T01:20:04;-3.90;86.40
4739;DHT22;2383;48.632;10.156;2023-02-28T01:24:06;-4.00;85.70
4739;DHT22;2383;48.632;10.156;2023-02-28T01:28:09;-3.80;85.40
4739;DHT22;2383;48.632;10.156;2023-02-28T01:32:11;-4.70;86.30
4739;DHT22;2383;48.632;10.156;2023-02-28T01:36:16;-4.60;86.80
4739;DHT22;2383;48.632;10.156;2023-02-28T01:40:19;-5.20;87.50
4739;DHT22;2383;48.632;10.156;2023-02-28T01:44:57;-4.40;86.10
4739;DHT22;2383;48.632;10.156;2023-02-28T01:49:01;-3.90;87.10
4739;DHT22;2383;48.632;10.156;2023-02-28T01:53:08;-4.30;86.30
4739;DHT22;2383;48.632;10.156;2023-02-28T01:57:15;-5.00;88.60
4739;DHT22;2383;48.632;10.156;2023-02-28T02:01:18;-4.60;87.80
4739;DHT22;2383;48.632;10.156;2023-02-28T02:05:28;-4.10;86.90
4739;DHT22;2383;48.632;10.156;2023-02-28T02:09:32;-5.00;88.40
4739;DHT22;2383;48.632;10.156;2023-02-28T02:13:38;-4.20;88.80
4739;DHT22;2383;48.632;10.156;2023-02-28T02:17:45;-4.10;87.30
4739;DHT22;2383;48.632;10.156;2023-02-28T02:30:52;-4.00;86.90
4739;DHT22;2383;48.632;10.156;2023-02-28T02:39:21;-4.30;87.70
4739;DHT22;2383;48.632;10.156;2023-02-28T02:43:49;-5.10;88.70
4739;DHT22;2383;48.632;10.156;2023-02-28T02:47:53;-4.70;89.30
4739;DHT22;2383;48.632;10.156;2023-02-28T02:52:00;-4.20;87.90
4739;DHT22;2383;48.632;10.156;2023-02-28T02:56:06;-3.70;87.70
4739;DHT22;2383;48.632;10.156;2023-02-28T03:00:09;-4.00;88.50
4739;DHT22;2383;48.632;10.156;2023-02-28T03:04:16;-4.70;89.40
4739;DHT22;2383;48.632;10.156;2023-02-28T03:08:18;-4.40;88.90
4739;DHT22;2383;48.632;10.156;2023-02-28T03:12:21;-4.50;88.60
4739;DHT22;2383;48.632;10.156;2023-02-28T03:21:01;-5.10;89.10
4739;DHT22;2383;48.632;10.156;2023-02-28T03:33:41;-5.00;90.30
4739;DHT22;2383;48.632;10.156;2023-02-28T03:37:45;-5.80;90.80
4739;DHT22;2383;48.632;10.156;2023-02-28T03:45:55;-5.00;90.20
4739;DHT22;2383;48.632;10.156;2023-02-28T03:50:05;-5.00;90.60
4739;DHT22;2383;48.632;10.156;2023-02-28T03:54:19;-4.40;89.50
4739;DHT22;2383;48.632;10.156;2023-02-28T03:58:37;-4.50;89.10
4739;DHT22;2383;48.632;10.156;2023-02-28T04:02:40;-4.00;90.20
4739;DHT22;2383;48.632;10.156;2023-02-28T04:06:43;-4.90;90.10
4739;DHT22;2383;48.632;10.156;2023-02-28T04:10:50;-4.90;89.50
4739;DHT22;2383;48.632;10.156;2023-02-28T04:14:54;-5.00;90.60
4739;DHT22;2383;48.632;10.156;2023-02-28T04:18:56;-5.60;90.70
4739;DHT22;2383;48.632;10.156;2023-02-28T04:23:03;-4.80;91.00
4739;DHT22;2383;48.632;10.156;2023-02-28T04:27:05;-4.60;90.00
4739;DHT22;2383;48.632;10.156;2023-02-28T04:31:07;-3.90;89.70
4739;DHT22;2383;48.632;10.156;2023-02-28T04:35:08;-2.80;88.10
4739;DHT22;2383;48.632;10.156;2023-02-28T04:39:13;-2.50;86.10
4739;DHT22;2383;48.632;10.156;2023-02-28T04:43:15;-3.20;86.70
4739;DHT22;2383;48.632;10.156;2023-02-28T04:47:17;-4.30;88.70
4739;DHT22;2383;48.632;10.156;2023-02-28T04:51:19;-3.90;89.70
4739;DHT22;2383;48.632;10.156;2023-02-28T04:55:21;-4.10;88.50
4739;DHT22;2383;48.632;10.156;2023-02-28T04:59:23;-3.90;89.20
4739;DHT22;2383;48.632;10.156;2023-02-28T05:03:25;-4.50;90.10
4739;DHT22;2383;48.632;10.156;2023-02-28T05:07:28;-4.00;90.10
4739;DHT22;2383;48.632;10.156;2023-02-28T05:11:32;-4.20;90.00
4739;DHT22;2383;48.632;10.156;2023-02-28T05:15:37;-5.00;90.70
4739;DHT22;2383;48.632;10.156;2023-02-28T05:19:39;-5.40;91.30
4739;DHT22;2383;48.632;10.156;2023-02-28T05:23:41;-4.70;90.50
4739;DHT22;2383;48.632;10.156;2023-02-28T05:27:43;-4.10;90.50
4739;DHT22;2383;48.632;10.156;2023-02-28T05:31:46;-4.80;90.30
4739;DHT22;2383;48.632;10.156;2023-02-28T05:35:48;-4.30;90.20
4739;DHT22;2383;48.632;10.156;2023-02-28T05:39:50;-4.30;90.10
4739;DHT22;2383;48.632;10.156;2023-02-28T05:43:52;-4.80;90.80
4739;DHT22;2383;48.632;10.156;2023-02-28T05:47:54;-4.90;91.10
4739;DHT22;2383;48.632;10.156;2023-02-28T05:51:56;-5.30;91.10
4739;DHT22;2383;48.632;10.156;2023-02-28T05:55:58;-5.50;91.60
4739;DHT22;2383;48.632;10.156;2023-02-28T06:00:00;-4.30;90.80
4739;DHT22;2383;48.632;10.156;2023-02-28T06:04:12;-4.60;91.10
4739;DHT22;2383;48.632;10.156;2023-02-28T06:08:31;-4.10;90.50
4739;DHT22;2383;48.632;10.156;2023-02-28T06:12:33;-3.30;89.80
4739;DHT22;2383;48.632;10.156;2023-02-28T06:16:35;-3.20;88.80
4739;DHT22;2383;48.632;10.156;2023-02-28T06:20:37;-2.80;88.10
4739;DHT22;2383;48.632;10.156;2023-02-28T06:24:39;-2.80;87.60
4739;DHT22;2383;48.632;10.156;2023-02-28T06:28:41;-3.10;88.30
4739;DHT22;2383;48.632;10.156;2023-02-28T06:32:43;-3.30;87.80
4739;DHT22;2383;48.632;10.156;2023-02-28T06:36:45;-4.00;88.30
4739;DHT22;2383;48.632;10.156;2023-02-28T06:40:53;-3.20;89.00
4739;DHT22;2383;48.632;10.156;2023-02-28T06:44:56;-3.10;88.30
4739;DHT22;2383;48.632;10.156;2023-02-28T06:48:58;-2.70;87.70
4739;DHT22;2383;48.632;10.156;2023-02-28T06:52:59;-3.20;89.00
4739;DHT22;2383;48.632;10.156;2023-02-28T06:57:01;-2.40;88.00
4739;DHT22;2383;48.632;10.156;2023-02-28T07:01:03;-2.40;86.80
4739;DHT22;2383;48.632;10.156;2023-02-28T07:05:06;-2.90;87.00
4739;DHT22;2383;48.632;10.156;2023-02-28T07:09:08;-3.40;88.10
4739;DHT22;2383;48.632;10.156;2023-02-28T07:13:10;-3.20;87.80
4739;DHT22;2383;48.632;10.156;2023-02-28T07:17:11;-3.50;88.90
4739;DHT22;2383;48.632;10.156;2023-02-28T07:21:14;-3.90;88.20
4739;DHT22;2383;48.632;10.156;2023-02-28T07:25:16;-3.60;88.10
4739;DHT22;2383;48.632;10.156;2023-02-28T07:29:18;-4.00;89.10
4739;DHT22;2383;48.632;10.156;2023-02-28T07:33:20;-3.40;88.30
4739;DHT22;2383;48.632;10.156;2023-02-28T07:37:22;-3.00;88.00
4739;DHT22;2383;48.632;10.156;2023-02-28T07:41:24;-2.30;86.50
4739;DHT22;2383;48.632;10.156;2023-02-28T07:45:30;-2.20;86.30
4739;DHT22;2383;48.632;10.156;2023-02-28T07:49:34;-3.10;86.70
4739;DHT22;2383;48.632;10.156;2023-02-28T07:53:36;-3.00;87.10
4739;DHT22;2383;48.632;10.156;2023-02-28T07:57:38;-2.50;86.50
4739;DHT22;2383;48.632;10.156;2023-02-28T08:01:39;-2.70;86.40
4739;DHT22;2383;48.632;10.156;2023-02-28T08:05:41;-2.40;86.50
4739;DHT22;2383;48.632;10.156;2023-02-28T08:09:44;-2.50;84.90
4739;DHT22;2383;48.632;10.156;2023-02-28T08:13:46;-2.30;86.40
4739;DHT22;2383;48.632;10.156;2023-02-28T08:17:48;-3.00;87.30
4739;DHT22;2383;48.632;10.156;2023-02-28T08:21:50;-2.40;86.00
4739;DHT22;2383;48.632;10.156;2023-02-28T08:25:55;-2.90;86.60
4739;DHT22;2383;48.632;10.156;2023-02-28T08:29:58;-2.60;86.90
4739;DHT22;2383;48.632;10.156;2023-02-28T08:33:59;-2.90;86.70
4739;DHT22;2383;48.632;10.156;2023-02-28T08:38:01;-2.40;86.40
4739;DHT22;2383;48.632;10.156;2023-02-28T08:42:03;-2.80;86.80
4739;DHT22;2383;48.632;10.156;2023-02-28T08:46:12;-2.10;85.70
4739;DHT22;2383;48.632;10.156;2023-02-28T08:50:14;-2.30;86.30
4739;DHT22;2383;48.632;10.156;2023-02-28T08:54:16;-3.30;86.60
4739;DHT22;2383;48.632;10.156;2023-02-28T08:58:20;-3.40;87.90
4739;DHT22;2383;48.632;10.156;2023-02-28T09:02:22;-3.00;88.10
4739;DHT22;2383;48.632;10.156;2023-02-28T09:06:25;-2.10;87.10
4739;DHT22;2383;48.632;10.156;2023-02-28T09:10:28;-1.60;85.50
4739;DHT22;2383;48.632;10.156;2023-02-28T09:14:30;-2.00;85.50
4739;DHT22;2383;48.632;10.156;2023-02-28T09:18:34;-2.20;85.70
4739;DHT22;2383;48.632;10.156;2023-02-28T09:22:38;-1.20;85.80
4739;DHT22;2383;48.632;10.156;2023-02-28T09:26:40;-1.00;84.60
4739;DHT22;2383;48.632;10.156;2023-02-28T09:30:54;-1.30;84.00
4739;DHT22;2383;48.632;10.156;2023-02-28T09:34:56;-2.20;85.10
4739;DHT22;2383;48.632;10.156;2023-02-28T09:38:57;-2.30;86.40
4739;DHT22;2383;48.632;10.156;2023-02-28T09:42:59;-1.40;85.40
4739;DHT22;2383;48.632;10.156;2023-02-28T09:55:50;-0.60;84.00
4739;DHT22;2383;48.632;10.156;2023-02-28T10:09:07;-0.50;83.30
4739;DHT22;2383;48.632;10.156;2023-02-28T10:17:40;0.00;82.50
4739;DHT22;2383;48.632;10.156;2023-02-28T10:26:11;-0.60;82.20
4739;DHT22;2383;48.632;10.156;2023-02-28T10:30:14;-0.50;82.40
4739;DHT22;2383;48.632;10.156;2023-02-28T10:34:16;-0.50;82.50
4739;DHT22;2383;48.632;10.156;2023-02-28T10:38:35;-0.50;82.60
4739;DHT22;2383;48.632;10.156;2023-02-28T10:42:37;-1.50;84.20
4739;DHT22;2383;48.632;10.156;2023-02-28T10:46:41;-1.30;85.70
4739;DHT22;2383;48.632;10.156;2023-02-28T10:50:44;-0.10;83.20
4739;DHT22;2383;48.632;10.156;2023-02-28T10:55:18;0.30;83.40
4739;DHT22;2383;48.632;10.156;2023-02-28T10:59:28;0.30;82.00
4739;DHT22;2383;48.632;10.156;2023-02-28T11:03:34;0.60;81.90
4739;DHT22;2383;48.632;10.156;2023-02-28T11:07:37;0.30;82.70
4739;DHT22;2383;48.632;10.156;2023-02-28T11:11:53;0.40;81.60
4739;DHT22;2383;48.632;10.156;2023-02-28T11:15:57;0.40;82.10
4739;DHT22;2383;48.632;10.156;2023-02-28T11:20:05;-0.90;83.70
4739;DHT22;2383;48.632;10.156;2023-02-28T11:24:28;0.00;82.70
4739;DHT22;2383;48.632;10.156;2023-02-28T11:28:32;0.30;82.50
4739;DHT22;2383;48.632;10.156;2023-02-28T11:32:34;0.50;82.70
4739;DHT22;2383;48.632;10.156;2023-02-28T11:36:36;0.80;81.80
4739;DHT22;2383;48.632;10.156;2023-02-28T12:07:18;0.90;82.10
4739;DHT22;2383;48.632;10.156;2023-02-28T12:11:54;0.90;83.00
4739;DHT22;2383;48.632;10.156;2023-02-28T12:20:37;1.40;80.70
4739;DHT22;2383;48.632;10.156;2023-02-28T12:28:53;0.40;82.60
4739;DHT22;2383;48.632;10.156;2023-02-28T12:33:04;-0.10;82.00
4739;DHT22;2383;48.632;10.156;2023-02-28T12:37:16;0.90;83.20
4739;DHT22;2383;48.632;10.156;2023-02-28T12:45:44;0.20;82.00
4739;DHT22;2383;48.632;10.156;2023-02-28T12:50:09;0.60;81.70
4739;DHT22;2383;48.632;10.156;2023-02-28T12:54:44;1.10;81.00
4739;DHT22;2383;48.632;10.156;2023-02-28T13:11:48;2.00;79.10
4739;DHT22;2383;48.632;10.156;2023-02-28T13:16:16;1.70;78.80
4739;DHT22;2383;48.632;10.156;2023-02-28T13:33:20;1.90;79.60
4739;DHT22;2383;48.632;10.156;2023-02-28T13:45:33;1.90;77.70
4739;DHT22;2383;48.632;10.156;2023-02-28T13:49:40;1.50;77.90
4739;DHT22;2383;48.632;10.156;2023-02-28T13:53:56;1.80;78.00
4739;DHT22;2383;48.632;10.156;2023-02-28T14:03:00;2.40;77.80
4739;DHT22;2383;48.632;10.156;2023-02-28T14:07:08;2.50;77.30
4739;DHT22;2383;48.632;10.156;2023-02-28T14:11:31;2.10;77.70
4739;DHT22;2383;48.632;10.156;2023-02-28T14:15:41;2.50;78.30
4739;DHT22;2383;48.632;10.156;2023-02-28T14:19:46;2.50;77.90
4739;DHT22;2383;48.632;10.156;2023-02-28T14:37:28;2.30;77.30
4739;DHT22;2383;48.632;10.156;2023-02-28T14:41:37;2.10;77.90
4739;DHT22;2383;48.632;10.156;2023-02-28T14:45:40;2.30;78.10
4739;DHT22;2383;48.632;10.156;2023-02-28T14:49:44;2.50;78.50
4739;DHT22;2383;48.632;10.156;2023-02-28T14:53:58;2.60;78.10
4739;DHT22;2383;48.632;10.156;2023-02-28T14:58:06;2.40;77.40
4739;DHT22;2383;48.632;10.156;2023-02-28T15:06:19;2.30;78.30
4739;DHT22;2383;48.632;10.156;2023-02-28T15:14:26;1.00;78.40
4739;DHT22;2383;48.632;10.156;2023-02-28T15:18:46;1.90;79.10
4739;DHT22;2383;48.632;10.156;2023-02-28T15:22:50;2.60;78.10
4739;DHT22;2383;48.632;10.156;2023-02-28T15:26:57;2.70;77.60
4739;DHT22;2383;48.632;10.156;2023-02-28T15:31:01;3.00;77.30
4739;DHT22;2383;48.632;10.156;2023-02-28T15:39:28;2.80;77.80
4739;DHT22;2383;48.632;10.156;2023-02-28T15:43:33;2.70;77.20
4739;DHT22;2383;48.632;10.156;2023-02-28T15:47:35;2.70;76.70
4739;DHT22;2383;48.632;10.156;2023-02-28T15:51:38;2.80;77.00
4739;DHT22;2383;48.632;10.156;2023-02-28T15:55:40;2.70;76.90
4739;DHT22;2383;48.632;10.156;2023-02-28T15:59:53;2.70;77.50
4739;DHT22;2383;48.632;10.156;2023-02-28T16:03:59;2.70;77.80
4739;DHT22;2383;48.632;10.156;2023-02-28T16:08:15;2.60;78.00
4739;DHT22;2383;48.632;10.156;2023-02-28T16:12:20;2.60;78.10
4739;DHT22;2383;48.632;10.156;2023-02-28T16:16:24;2.70;77.90
4739;DHT22;2383;48.632;10.156;2023-02-28T16:20:29;2.80;78.20
4739;DHT22;2383;48.632;10.156;2023-02-28T16:24:31;2.80;77.80
4739;DHT22;2383;48.632;10.156;2023-02-28T16:28:35;1.60;78.80
4739;DHT22;2383;48.632;10.156;2023-02-28T16:32:38;1.70;78.80
4739;DHT22;2383;48.632;10.156;2023-02-28T16:36:39;1.90;79.20
4739;DHT22;2383;48.632;10.156;2023-02-28T16:40:42;1.70;79.80
4739;DHT22;2383;48.632;10.156;2023-02-28T16:44:46;1.90;79.70
4739;DHT22;2383;48.632;10.156;2023-02-28T16:48:48;1.20;81.40
4739;DHT22;2383;48.632;10.156;2023-02-28T16:52:53;1.70;80.00
4739;DHT22;2383;48.632;10.156;2023-02-28T16:56:56;1.60;80.10
4739;DHT22;2383;48.632;10.156;2023-02-28T17:00:58;0.70;81.10
4739;DHT22;2383;48.632;10.156;2023-02-28T17:05:00;1.40;80.10
4739;DHT22;2383;48.632;10.156;2023-02-28T17:09:02;1.80;80.00
4739;DHT22;2383;48.632;10.156;2023-02-28T17:13:04;1.60;78.70
4739;DHT22;2383;48.632;10.156;2023-02-28T17:17:19;1.70;79.90
4739;DHT22;2383;48.632;10.156;2023-02-28T17:21:22;1.50;78.90
4739;DHT22;2383;48.632;10.156;2023-02-28T17:25:24;1.50;80.00
4739;DHT22;2383;48.632;10.156;2023-02-28T17:29:26;1.70;79.90
4739;DHT22;2383;48.632;10.156;2023-02-28T17:33:28;1.40;81.20
4739;DHT22;2383;48.632;10.156;2023-02-28T17:37:30;1.60;81.40
4739;DHT22;2383;48.632;10.156;2023-02-28T17:41:32;1.50;81.50
4739;DHT22;2383;48.632;10.156;2023-02-28T17:45:35;1.50;81.60
4739;DHT22;2383;48.632;10.156;2023-02-28T17:49:37;1.10;82.90
4739;DHT22;2383;48.632;10.156;2023-02-28T17:53:39;1.20;83.00
4739;DHT22;2383;48.632;10.156;2023-02-28T17:57:41;1.10;82.30
4739;DHT22;2383;48.632;10.156;2023-02-28T18:01:43;1.00;82.30
4739;DHT22;2383;48.632;10.156;2023-02-28T18:05:46;0.90;82.50
4739;DHT22;2383;48.632;10.156;2023-02-28T18:09:48;0.70;82.90
4739;DHT22;2383;48.632;10.156;2023-02-28T18:13:51;0.70;83.40
4739;DHT22;2383;48.632;10.156;2023-02-28T18:17:54;0.80;82.70
4739;DHT22;2383;48.632;10.156;2023-02-28T18:21:55;0.60;82.80
4739;DHT22;2383;48.632;10.156;2023-02-28T18:25:57;0.50;83.00
4739;DHT22;2383;48.632;10.156;2023-02-28T18:29:59;0.40;83.50
4739;DHT22;2383;48.632;10.156;2023-02-28T18:34:01;0.40;83.40
4739;DHT22;2383;48.632;10.156;2023-02-28T18:38:15;-0.50;84.90
4739;DHT22;2383;48.632;10.156;2023-02-28T18:42:17;-0.10;84.40
4739;DHT22;2383;48.632;10.156;2023-02-28T18:46:20;0.10;83.70
4739;DHT22;2383;48.632;10.156;2023-02-28T18:50:22;0.00;84.30
4739;DHT22;2383;48.632;10.156;2023-02-28T18:54:24;0.20;84.00
4739;DHT22;2383;48.632;10.156;2023-02-28T18:58:26;0.10;83.90
4739;DHT22;2383;48.632;10.156;2023-02-28T19:02:28;0.00;84.50
4739;DHT22;2383;48.632;10.156;2023-02-28T19:06:31;0.10;84.50
4739;DHT22;2383;48.632;10.156;2023-02-28T19:10:33;0.30;84.00
4739;DHT22;2383;48.632;10.156;2023-02-28T19:14:38;0.00;84.10
4739;DHT22;2383;48.632;10.156;2023-02-28T19:18:40;0.10;84.30
4739;DHT22;2383;48.632;10.156;2023-02-28T19:22:42;0.00;84.50
4739;DHT22;2383;48.632;10.156;2023-02-28T19:26:45;-0.30;85.00
4739;DHT22;2383;48.632;10.156;2023-02-28T19:30:47;-0.40;85.10
4739;DHT22;2383;48.632;10.156;2023-02-28T19:34:50;0.10;84.40
4739;DHT22;2383;48.632;10.156;2023-02-28T19:38:52;0.10;84.40
4739;DHT22;2383;48.632;10.156;2023-02-28T19:42:54;0.20;84.70
4739;DHT22;2383;48.632;10.156;2023-02-28T19:46:56;0.40;84.20
4739;DHT22;2383;48.632;10.156;2023-02-28T19:51:10;0.10;84.20
4739;DHT22;2383;48.632;10.156;2023-02-28T19:55:12;-0.10;84.50
4739;DHT22;2383;48.632;10.156;2023-02-28T19:59:14;-0.70;84.90
4739;DHT22;2383;48.632;10.156;2023-02-28T20:03:26;-0.30;84.90
4739;DHT22;2383;48.632;10.156;2023-02-28T20:07:28;0.20;84.10
4739;DHT22;2383;48.632;10.156;2023-02-28T20:11:30;0.30;83.50
4739;DHT22;2383;48.632;10.156;2023-02-28T20:15:32;0.40;83.40
4739;DHT22;2383;48.632;10.156;2023-02-28T20:19:34;0.40;83.30
4739;DHT22;2383;48.632;10.156;2023-02-28T20:23:37;0.50;83.20
4739;DHT22;2383;48.632;10.156;2023-02-28T20:27:39;0.50;83.20
4739;DHT22;2383;48.632;10.156;2023-02-28T20:31:41;-0.40;82.80
4739;DHT22;2383;48.632;10.156;2023-02-28T20:35:43;-1.10;85.40
4739;DHT22;2383;48.632;10.156;2023-02-28T20:39:45;-0.60;84.60
4739;DHT22;2383;48.632;10.156;2023-02-28T20:43:56;0.00;83.90
4739;DHT22;2383;48.632;10.156;2023-02-28T20:48:03;-0.20;83.10
4739;DHT22;2383;48.632;10.156;2023-02-28T20:52:05;-0.20;83.80
4739;DHT22;2383;48.632;10.156;2023-02-28T20:56:10;0.20;83.50
4739;DHT22;2383;48.632;10.156;2023-02-28T21:00:14;0.10;83.20
4739;DHT22;2383;48.632;10.156;2023-02-28T21:04:21;0.10;82.90
4739;DHT22;2383;48.632;10.156;2023-02-28T21:08:23;-0.20;82.90
4739;DHT22;2383;48.632;10.156;2023-02-28T21:12:25;-0.20;83.80
4739;DHT22;2383;48.632;10.156;2023-02-28T21:16:27;0.00;83.60
4739;DHT22;2383;48.632;10.156;2023-02-28T21:20:32;0.20;83.30
4739;DHT22;2383;48.632;10.156;2023-02-28T21:24:34;0.20;82.90
4739;DHT22;2383;48.632;10.156;2023-02-28T21:28:37;0.30;82.90
4739;DHT22;2383;48.632;10.156;2023-02-28T21:32:44;0.20;83.00
4739;DHT22;2383;48.632;10.156;2023-02-28T21:36:46;0.20;83.00
4739;DHT22;2383;48.632;10.156;2023-02-28T21:40:48;0.30;82.80
4739;DHT22;2383;48.632;10.156;2023-02-28T21:44:51;-0.10;82.90
4739;DHT22;2383;48.632;10.156;2023-02-28T21:48:54;-0.40;83.50
4739;DHT22;2383;48.632;10.156;2023-02-28T21:52:57;-1.10;84.90
4739;DHT22;2383;48.632;10.156;2023-02-28T21:56:58;-0.60;84.50
4739;DHT22;2383;48.632;10.156;2023-02-28T22:01:07;-0.20;84.50
4739;DHT22;2383;48.632;10.156;2023-02-28T22:05:09;-0.50;84.40
4739;DHT22;2383;48.632;10.156;2023-02-28T22:09:11;-0.10;84.10
4739;DHT22;2383;48.632;10.156;2023-02-28T22:13:13;0.20;83.40
4739;DHT22;2383;48.632;10.156;2023-02-28T22:17:15;0.10;83.90
4739;DHT22;2383;48.632;10.156;2023-02-28T22:21:18;0.00;83.80
4739;DHT22;2383;48.632;10.156;2023-02-28T22:25:20;0.10;83.70
4739;DHT22;2383;48.632;10.156;2023-02-28T22:29:23;0.10;83.40
4739;DHT22;2383;48.632;10.156;2023-02-28T22:33:26;-0.40;84.60
4739;DHT22;2383;48.632;10.156;2023-02-28T22:37:28;0.00;84.60
4739;DHT22;2383;48.632;10.156;2023-02-28T22:41:30;0.10;83.90
4739;DHT22;2383;48.632;10.156;2023-02-28T22:45:39;0.10;84.20
4739;DHT22;2383;48.632;10.156;2023-02-28T22:49:42;0.30;83.90
4739;DHT22;2383;48.632;10.156;2023-02-28T22:53:45;0.40;83.90
4739;DHT22;2383;48.632;10.156;2023-02-28T22:57:47;-0.10;84.50
4739;DHT22;2383;48.632;10.156;2023-02-28T23:01:49;-0.30;84.60
4739;DHT22;2383;48.632;10.156;2023-02-28T23:05:51;-0.50;85.40
4739;DHT22;2383;48.632;10.156;2023-02-28T23:09:53;-0.20;85.30
4739;DHT22;2383;48.632;10.156;2023-02-28T23:13:56;0.10;84.80
4739;DHT22;2383;48.632;10.156;2023-02-28T23:18:00;0.50;84.60
4739;DHT22;2383;48.632;10.156;2023-02-28T23:22:03;0.50;84.30
4739;DHT22;2383;48.632;10.156;2023-02-28T23:26:07;0.50;84.30
4739;DHT22;2383;48.632;10.156;2023-02-28T23:30:09;0.60;84.20
4739;DHT22;2383;48.632;10.156;2023-02-28T23:34:12;0.30;83.90
4739;DHT22;2383;48.632;10.156;2023-02-28T23:38:15;0.40;84.00
4739;DHT22;2383;48.632;10.156;2023-02-28T23:42:17;-0.10;84.20
4739;DHT22;2383;48.632;10.156;2023-02-28T23:46:20;-0.80;85.40
4739;DHT22;2383;48.632;10.156;2023-02-28T23:50:22;-0.30;85.50
4739;DHT22;2383;48.632;10.156;2023-02-28T23:54:24;0.00;85.00
4739;DHT22;2383;48.632;10.156;2023-02-28T23:58:28;0.10;84.40
